Time;durP1;ratioP1;P1;durP2;ratioP2;P2;SDS_P1;SDS_P2;PMS_P1;PMS_P2;Temp;Humidity;BMP_temperature;BMP_pressure;BME280_temperature;BME280_humidity;BME280_pressure;Samples;Min_cycle;Max_cycle;Signal;HPM_P1;HPM_P2
2022/10/29 00:02:16;;;;;;;1.38;1.27;;;13.00;99.90;;;;;;5102125;28;20979;-63
2022/10/29 00:04:42;;;;;;;0.80;0.80;;;13.10;99.90;;;;;;5074212;28;20868;-63
2022/10/29 00:07:09;;;;;;;2.30;1.30;;;13.10;99.90;;;;;;5106566;28;20506;-63
2022/10/29 00:09:36;;;;;;;1.42;1.17;;;13.00;97.00;;;;;;5098635;28;20424;-63
2022/10/29 00:12:03;;;;;;;0.93;0.80;;;13.00;92.30;;;;;;5107591;28;20420;-62
2022/10/29 00:14:33;;;;;;;1.00;1.00;;;12.90;86.30;;;;;;5096146;28;20424;-63
2022/10/29 00:16:59;;;;;;;1.15;1.02;;;12.90;75.40;;;;;;5102885;28;20941;-63
2022/10/29 00:19:26;;;;;;;1.05;1.00;;;12.80;63.10;;;;;;5110607;28;20416;-63
2022/10/29 00:21:56;;;;;;;1.20;0.93;;;12.70;56.20;;;;;;5110663;28;20428;-63
2022/10/29 00:24:23;;;;;;;1.90;1.00;;;12.60;53.50;;;;;;5097355;28;21124;-63
2022/10/29 00:26:50;;;;;;;0.70;0.70;;;12.50;47.00;;;;;;5096764;28;20521;-64
2022/10/29 00:29:16;;;;;;;0.70;0.70;;;12.40;40.90;;;;;;5111898;28;20477;-64
2022/10/29 00:31:43;;;;;;;1.30;0.90;;;12.30;42.30;;;;;;5107546;28;20415;-64
2022/10/29 00:34:10;;;;;;;3.00;1.07;;;12.30;51.20;;;;;;5097023;28;20434;-64
2022/10/29 00:36:39;;;;;;;1.80;1.35;;;12.20;63.40;;;;;;5104384;28;20456;-64
2022/10/29 00:39:05;;;;;;;1.40;1.20;;;12.20;73.30;;;;;;5097486;28;20495;-64
2022/10/29 00:41:35;;;;;;;4.80;1.07;;;12.30;81.10;;;;;;5103082;28;20426;-64
2022/10/29 00:44:24;;;;;;;0.80;0.80;;;12.20;74.90;;;;;;5106120;28;20967;-64
2022/10/29 00:47:01;;;;;;;1.20;1.10;;;12.20;72.20;;;;;;5102397;28;21058;-64
2022/10/29 00:49:33;;;;;;;5.20;1.20;;;12.20;62.80;;;;;;5097821;28;20424;-64
2022/10/29 00:52:02;;;;;;;1.05;1.05;;;12.10;59.30;;;;;;5109821;28;20416;-64
2022/10/29 00:54:33;;;;;;;1.00;1.00;;;12.20;85.90;;;;;;5105895;28;20424;-64
2022/10/29 00:57:05;;;;;;;1.30;1.00;;;12.20;91.80;;;;;;5099303;28;20427;-64
2022/10/29 00:59:31;;;;;;;1.05;1.05;;;12.10;88.30;;;;;;5105918;28;20543;-64
2022/10/29 01:01:58;;;;;;;1.00;1.00;;;12.00;78.00;;;;;;5104477;28;20424;-64
2022/10/29 01:04:26;;;;;;;0.63;0.63;;;11.90;69.90;;;;;;5100299;28;20520;-64
2022/10/29 01:06:55;;;;;;;2.97;1.20;;;11.80;61.40;;;;;;5101303;28;20436;-64
2022/10/29 01:09:22;;;;;;;1.27;1.17;;;11.80;67.20;;;;;;5105956;28;20424;-64
2022/10/29 01:12:07;;;;;;;1.50;1.02;;;11.70;75.90;;;;;;5109017;28;20436;-64
2022/10/29 01:14:46;;;;;;;0.80;0.80;;;11.70;75.30;;;;;;5093245;27;20434;-64
2022/10/29 01:17:42;;;;;;;1.10;1.00;;;11.50;65.20;;;;;;5104522;28;20427;-64
2022/10/29 01:20:44;;;;;;;0.80;0.80;;;11.40;56.20;;;;;;5095326;28;20968;-63
2022/10/29 01:23:41;;;;;;;1.40;0.90;;;11.40;63.90;;;;;;5103947;28;20424;-64
2022/10/29 01:26:23;;;;;;;1.17;1.00;;;11.50;93.80;;;;;;5086181;28;20428;-64
2022/10/29 01:29:01;;;;;;;1.90;1.38;;;11.60;99.90;;;;;;5102006;28;20435;-64
2022/10/29 01:31:28;;;;;;;0.70;0.70;;;11.70;99.90;;;;;;5099400;28;20443;-63
2022/10/29 01:34:13;;;;;;;1.70;0.93;;;11.70;99.90;;;;;;5109373;28;20436;-63
2022/10/29 01:37:11;;;;;;;2.97;1.00;;;11.70;99.90;;;;;;5099824;27;20429;-64
2022/10/29 01:39:43;;;;;;;3.65;1.00;;;11.70;99.90;;;;;;5091844;28;20431;-64
2022/10/29 01:42:18;;;;;;;1.50;1.17;;;11.60;97.60;;;;;;5102075;28;20802;-64
2022/10/29 01:45:06;;;;;;;0.73;0.68;;;11.40;87.40;;;;;;5103578;28;20437;-64
2022/10/29 01:47:57;;;;;;;1.85;1.20;;;11.30;80.80;;;;;;5099706;28;20759;-64
2022/10/29 01:50:25;;;;;;;1.17;1.10;;;11.30;90.50;;;;;;5089023;28;20425;-62
2022/10/29 01:52:53;;;;;;;1.17;1.07;;;11.20;92.90;;;;;;5102591;28;20432;-63
2022/10/29 01:55:28;;;;;;;1.08;0.88;;;11.20;94.10;;;;;;5105020;28;21110;-62
2022/10/29 01:57:55;;;;;;;1.45;1.30;;;11.20;99.90;;;;;;5102101;28;20436;-62
2022/10/29 02:00:25;;;;;;;1.27;1.20;;;11.20;99.90;;;;;;5107768;28;20776;-62
2022/10/29 02:03:29;;;;;;;1.00;1.00;;;11.20;99.90;;;;;;5104887;28;20926;-62
2022/10/29 02:06:32;;;;;;;0.90;0.90;;;11.20;99.90;;;;;;5104873;28;20487;-62
2022/10/29 02:09:21;;;;;;;1.30;1.20;;;11.20;99.90;;;;;;5098018;28;20903;-62
2022/10/29 02:12:15;;;;;;;0.60;0.60;;;11.10;99.90;;;;;;5094190;28;20455;-62
2022/10/29 02:14:51;;;;;;;0.80;0.80;;;11.10;99.90;;;;;;5103095;28;20431;-62
2022/10/29 02:17:19;;;;;;;1.08;1.08;;;11.00;97.00;;;;;;5097247;28;20421;-62
2022/10/29 02:19:46;;;;;;;0.70;0.70;;;10.90;91.80;;;;;;5098923;28;20425;-62
2022/10/29 02:22:13;;;;;;;1.27;1.02;;;10.70;84.80;;;;;;5103368;28;21066;-62
2022/10/29 02:24:40;;;;;;;2.75;1.20;;;10.70;95.00;;;;;;5106782;28;20421;-62
2022/10/29 02:27:09;;;;;;;2.20;1.10;;;10.70;99.20;;;;;;5100717;28;20529;-63
2022/10/29 02:29:36;;;;;;;2.47;1.15;;;10.60;95.40;;;;;;5100111;28;21067;-63
2022/10/29 02:32:03;;;;;;;0.75;0.75;;;10.60;93.80;;;;;;5102379;28;20426;-63
2022/10/29 02:34:29;;;;;;;1.07;1.03;;;10.50;94.40;;;;;;5107014;28;20435;-63
2022/10/29 02:36:58;;;;;;;1.30;1.00;;;10.50;97.50;;;;;;5100332;28;21183;-63
2022/10/29 02:39:25;;;;;;;0.88;0.88;;;10.50;99.90;;;;;;5099461;28;20438;-63
2022/10/29 02:41:52;;;;;;;2.90;1.67;;;10.60;99.90;;;;;;5104794;28;20428;-63
2022/10/29 02:44:24;;;;;;;1.30;1.20;;;10.80;99.90;;;;;;5105150;28;20424;-63
2022/10/29 02:46:53;;;;;;;1.57;1.47;;;11.00;99.90;;;;;;5096738;28;20440;-63
2022/10/29 02:49:20;;;;;;;1.33;1.25;;;11.20;99.90;;;;;;5105804;28;20428;-63
2022/10/29 02:51:47;;;;;;;2.00;1.38;;;11.30;99.90;;;;;;5108244;28;20424;-63
2022/10/29 02:54:13;;;;;;;1.58;1.40;;;11.50;99.90;;;;;;5108874;28;21290;-63
2022/10/29 02:56:43;;;;;;;2.30;1.50;;;11.60;99.90;;;;;;5109870;28;20424;-63
2022/10/29 02:59:13;;;;;;;1.30;0.93;;;11.70;99.90;;;;;;5110303;28;20420;-63
2022/10/29 03:01:39;;;;;;;2.90;1.30;;;11.80;99.90;;;;;;5102968;28;20916;-63
2022/10/29 03:04:10;;;;;;;1.27;1.17;;;11.80;99.90;;;;;;5097755;28;20430;-63
2022/10/29 03:06:37;;;;;;;1.42;1.33;;;11.80;99.90;;;;;;5097315;28;20428;-63
2022/10/29 03:09:04;;;;;;;1.35;1.30;;;11.70;99.90;;;;;;5109321;28;20443;-63
2022/10/29 03:11:31;;;;;;;3.20;1.85;;;11.70;99.90;;;;;;5102203;28;20432;-63
2022/10/29 03:13:58;;;;;;;3.15;1.30;;;11.60;99.90;;;;;;5106812;28;20424;-63
2022/10/29 03:16:25;;;;;;;2.13;1.30;;;11.70;99.90;;;;;;5103282;28;20513;-63
2022/10/29 03:18:51;;;;;;;1.38;1.27;;;11.70;99.90;;;;;;5107845;28;20967;-63
2022/10/29 03:21:18;;;;;;;1.73;1.30;;;11.70;99.90;;;;;;5101387;28;20914;-63
2022/10/29 03:23:45;;;;;;;1.42;1.30;;;11.60;99.90;;;;;;5104878;28;20428;-63
2022/10/29 03:26:12;;;;;;;1.27;1.27;;;11.40;99.90;;;;;;5100567;28;20432;-63
2022/10/29 03:28:38;;;;;;;0.93;0.93;;;11.20;99.90;;;;;;5089330;28;20439;-63
2022/10/29 03:31:05;;;;;;;1.20;1.10;;;11.10;99.90;;;;;;5099792;28;20428;-63
2022/10/29 03:33:32;;;;;;;1.20;1.10;;;10.90;99.90;;;;;;5096839;28;20942;-63
2022/10/29 03:36:01;;;;;;;1.30;1.20;;;10.70;99.90;;;;;;5104099;28;20807;-63
2022/10/29 03:38:28;;;;;;;3.42;1.55;;;10.60;99.90;;;;;;5107820;28;20797;-63
2022/10/29 03:40:55;;;;;;;1.38;1.27;;;10.60;99.90;;;;;;5096278;28;20414;-63
2022/10/29 03:43:22;;;;;;;1.53;1.10;;;10.50;99.90;;;;;;5098575;28;20422;-64
2022/10/29 03:45:56;;;;;;;1.63;1.52;;;10.40;99.90;;;;;;5107157;28;20492;-64
2022/10/29 03:48:24;;;;;;;2.13;1.48;;;10.30;99.90;;;;;;5111711;28;21243;-64
2022/10/29 03:50:59;;;;;;;2.20;0.80;;;10.20;99.90;;;;;;5111402;28;20499;-63
2022/10/29 03:53:27;;;;;;;0.85;0.85;;;10.20;99.90;;;;;;5104152;28;20482;-63
2022/10/29 03:55:55;;;;;;;4.78;1.58;;;10.20;99.90;;;;;;5097246;28;20436;-66
2022/10/29 03:58:23;;;;;;;1.35;1.25;;;10.00;99.90;;;;;;5101369;28;20508;-64
2022/10/29 04:01:03;;;;;;;1.13;1.02;;;9.90;99.90;;;;;;5084048;28;20426;-63
2022/10/29 04:03:31;;;;;;;4.00;1.40;;;9.90;99.90;;;;;;5107414;28;20451;-63
2022/10/29 04:06:00;;;;;;;0.88;0.82;;;9.90;99.90;;;;;;5100307;28;20565;-64
2022/10/29 04:08:28;;;;;;;0.90;0.90;;;10.00;99.90;;;;;;5107842;28;20461;-64
2022/10/29 04:10:54;;;;;;;1.20;1.20;;;10.00;99.90;;;;;;5105167;28;20981;-64
2022/10/29 04:13:21;;;;;;;1.55;0.90;;;10.00;99.90;;;;;;5109634;28;20446;-63
2022/10/29 04:15:51;;;;;;;1.17;1.08;;;10.00;99.90;;;;;;5104090;28;20416;-64
2022/10/29 04:18:18;;;;;;;1.30;1.20;;;10.00;99.90;;;;;;5104522;28;20416;-63
2022/10/29 04:20:45;;;;;;;1.08;1.08;;;10.00;99.90;;;;;;5092605;28;20432;-64
2022/10/29 04:23:32;;;;;;;2.70;1.00;;;10.10;99.90;;;;;;5101172;28;20424;-63
2022/10/29 04:26:19;;;;;;;0.60;0.60;;;10.10;99.90;;;;;;5106142;28;20454;-67
2022/10/29 04:29:05;;;;;;;1.15;0.98;;;10.20;99.90;;;;;;5103243;28;20495;-63
2022/10/29 04:31:32;;;;;;;0.85;0.85;;;10.40;99.90;;;;;;5108305;28;20432;-63
2022/10/29 04:33:59;;;;;;;1.20;0.95;;;10.60;99.90;;;;;;5098922;28;20438;-63
2022/10/29 04:36:26;;;;;;;0.90;0.60;;;10.70;99.90;;;;;;5110518;28;20902;-63
2022/10/29 04:38:53;;;;;;;1.00;1.00;;;10.80;99.90;;;;;;5094761;28;20426;-63
2022/10/29 04:41:19;;;;;;;1.10;1.00;;;10.90;99.90;;;;;;5104587;28;20431;-63
2022/10/29 04:43:46;;;;;;;1.42;0.93;;;11.00;99.90;;;;;;5109823;28;20507;-63
2022/10/29 04:46:13;;;;;;;4.90;1.35;;;11.10;99.90;;;;;;5104340;28;20998;-63
2022/10/29 04:48:39;;;;;;;1.25;1.02;;;11.10;99.90;;;;;;5110673;28;20439;-63
2022/10/29 04:51:19;;;;;;;0.70;0.70;;;11.10;99.90;;;;;;5108877;28;20445;-66
2022/10/29 04:53:46;;;;;;;1.08;1.00;;;11.10;99.90;;;;;;5105257;28;20424;-63
2022/10/29 04:56:13;;;;;;;0.90;0.90;;;11.20;99.90;;;;;;5108583;28;20433;-63
2022/10/29 04:58:40;;;;;;;1.50;1.40;;;11.20;99.90;;;;;;5111694;28;20466;-63
2022/10/29 05:01:07;;;;;;;0.90;0.90;;;11.10;99.90;;;;;;5111742;28;20416;-63
2022/10/29 05:03:34;;;;;;;1.48;0.90;;;11.10;99.90;;;;;;5083937;28;20533;-63
2022/10/29 05:06:03;;;;;;;1.30;1.20;;;11.10;99.90;;;;;;5106239;27;20428;-63
2022/10/29 05:08:30;;;;;;;1.23;1.10;;;11.10;99.90;;;;;;5113506;27;20966;-63
2022/10/29 05:11:03;;;;;;;0.80;0.80;;;11.10;99.90;;;;;;5111759;28;20416;-63
2022/10/29 05:13:31;;;;;;;0.98;0.98;;;11.10;99.90;;;;;;5111084;28;20424;-63
2022/10/29 05:16:01;;;;;;;1.90;1.27;;;11.10;99.90;;;;;;5111883;28;20428;-63
2022/10/29 05:18:28;;;;;;;2.70;0.90;;;11.20;99.90;;;;;;5111870;28;20430;-63
2022/10/29 05:20:55;;;;;;;0.90;0.90;;;11.20;99.90;;;;;;5110711;28;20420;-63
2022/10/29 05:23:22;;;;;;;1.40;1.30;;;11.20;99.90;;;;;;5128463;27;20438;-63
2022/10/29 05:25:50;;;;;;;1.20;1.20;;;11.30;99.90;;;;;;5113751;27;20474;-63
2022/10/29 05:28:20;;;;;;;2.55;1.20;;;11.30;99.90;;;;;;5111724;27;20553;-63
2022/10/29 05:30:48;;;;;;;1.70;1.10;;;11.30;99.90;;;;;;5105260;28;20429;-63
2022/10/29 05:33:21;;;;;;;1.00;0.90;;;11.40;99.90;;;;;;5103077;28;20425;-64
2022/10/29 05:35:48;;;;;;;1.20;1.05;;;11.40;99.90;;;;;;5110842;28;20420;-63
2022/10/29 05:38:15;;;;;;;1.40;1.20;;;11.40;99.90;;;;;;5095110;28;20800;-63
2022/10/29 05:40:43;;;;;;;1.38;1.30;;;11.40;99.90;;;;;;5107647;27;20428;-64
2022/10/29 05:43:12;;;;;;;1.67;1.10;;;11.40;99.90;;;;;;5105332;28;21359;-63
2022/10/29 05:45:39;;;;;;;1.50;0.90;;;11.30;99.90;;;;;;5109604;28;20943;-63
2022/10/29 05:48:06;;;;;;;0.90;0.90;;;11.40;99.90;;;;;;5095860;28;20428;-63
2022/10/29 05:50:33;;;;;;;2.80;1.17;;;11.40;99.90;;;;;;5104363;28;20432;-63
2022/10/29 05:53:05;;;;;;;1.40;1.35;;;11.30;99.90;;;;;;5105028;28;20423;-63
2022/10/29 05:55:33;;;;;;;1.48;1.35;;;11.30;99.90;;;;;;5110124;28;20424;-63
2022/10/29 05:58:06;;;;;;;1.25;1.15;;;11.20;99.90;;;;;;5107631;28;20480;-63
2022/10/29 06:00:35;;;;;;;1.30;1.30;;;11.20;99.90;;;;;;5100816;28;20424;-63
2022/10/29 06:03:02;;;;;;;2.00;1.30;;;11.20;99.90;;;;;;5103003;28;20426;-63
2022/10/29 06:05:29;;;;;;;0.70;0.70;;;11.30;99.90;;;;;;5100311;28;20910;-63
2022/10/29 06:07:57;;;;;;;1.23;1.17;;;11.30;99.90;;;;;;5103587;27;21384;-63
2022/10/29 06:10:26;;;;;;;2.22;1.20;;;11.30;99.90;;;;;;5102024;28;20424;-63
2022/10/29 06:12:53;;;;;;;2.90;1.20;;;11.30;99.90;;;;;;5093179;28;20429;-63
2022/10/29 06:15:20;;;;;;;1.30;1.20;;;11.30;99.90;;;;;;5107777;28;20431;-63
2022/10/29 06:17:47;;;;;;;1.17;1.17;;;11.30;99.90;;;;;;5103444;28;20482;-63
2022/10/29 06:20:20;;;;;;;1.60;1.50;;;11.30;99.90;;;;;;5095819;28;20424;-64
2022/10/29 06:22:54;;;;;;;1.95;1.17;;;11.30;99.90;;;;;;5091977;28;20427;-64
2022/10/29 06:25:25;;;;;;;1.58;1.30;;;11.30;99.90;;;;;;5103774;28;20424;-64
2022/10/29 06:28:03;;;;;;;1.52;1.20;;;11.40;99.90;;;;;;5103937;28;20476;-64
2022/10/29 06:30:31;;;;;;;2.03;1.40;;;11.40;99.90;;;;;;5108536;28;20837;-64
2022/10/29 06:32:59;;;;;;;1.33;0.88;;;11.40;99.90;;;;;;5096607;28;20438;-64
2022/10/29 06:35:26;;;;;;;0.98;0.98;;;11.50;99.90;;;;;;5093464;28;20942;-64
2022/10/29 06:37:53;;;;;;;0.82;0.82;;;11.50;99.90;;;;;;5088694;28;20422;-64
2022/10/29 06:40:21;;;;;;;3.40;1.10;;;11.50;99.90;;;;;;5098481;28;20463;-64
2022/10/29 06:42:47;;;;;;;1.13;0.75;;;11.60;99.90;;;;;;5094680;28;20518;-64
2022/10/29 06:45:14;;;;;;;0.70;0.70;;;11.70;99.90;;;;;;5096950;28;20432;-64
2022/10/29 06:47:44;;;;;;;1.30;0.93;;;11.70;99.90;;;;;;5102156;28;20432;-64
2022/10/29 06:50:13;;;;;;;1.08;1.08;;;11.80;99.90;;;;;;5098934;28;20451;-64
2022/10/29 06:52:39;;;;;;;0.82;0.82;;;11.90;99.90;;;;;;5105666;28;20436;-64
2022/10/29 06:55:07;;;;;;;1.23;1.10;;;11.90;99.90;;;;;;5101413;28;20434;-64
2022/10/29 06:57:35;;;;;;;3.00;1.50;;;12.00;99.90;;;;;;5101589;28;20431;-64
2022/10/29 07:00:03;;;;;;;1.42;1.33;;;12.20;99.90;;;;;;5108547;28;20419;-64
2022/10/29 07:02:34;;;;;;;1.75;1.33;;;12.20;99.90;;;;;;5103917;28;20424;-64
2022/10/29 07:05:04;;;;;;;1.60;1.50;;;12.30;99.90;;;;;;5084878;28;20437;-64
2022/10/29 07:07:30;;;;;;;1.42;1.20;;;12.50;99.90;;;;;;5096502;28;20424;-64
2022/10/29 07:09:57;;;;;;;1.38;1.27;;;12.50;99.90;;;;;;5100948;28;20424;-64
2022/10/29 07:12:27;;;;;;;1.40;1.30;;;12.60;99.90;;;;;;5107321;28;20461;-64
2022/10/29 07:14:54;;;;;;;1.45;1.35;;;12.60;99.90;;;;;;5101921;28;20941;-65
2022/10/29 07:17:22;;;;;;;1.50;1.23;;;12.60;99.90;;;;;;5095822;27;20422;-64
2022/10/29 07:19:49;;;;;;;1.30;1.30;;;12.70;99.90;;;;;;5095359;27;20495;-64
2022/10/29 07:22:16;;;;;;;2.10;1.60;;;12.70;99.90;;;;;;5104918;28;20424;-64
2022/10/29 07:24:43;;;;;;;1.65;1.55;;;12.80;99.90;;;;;;5105936;28;20424;-64
2022/10/29 07:27:10;;;;;;;1.65;1.45;;;12.90;99.90;;;;;;5105166;28;20897;-64
2022/10/29 07:29:36;;;;;;;5.15;2.08;;;13.00;99.90;;;;;;5110635;27;20519;-64
2022/10/29 07:32:03;;;;;;;2.53;1.63;;;13.10;99.90;;;;;;5100373;28;20443;-64
2022/10/29 07:34:30;;;;;;;1.60;1.50;;;13.30;99.90;;;;;;5099969;28;20520;-64
2022/10/29 07:36:57;;;;;;;1.85;1.58;;;13.40;99.90;;;;;;5107014;28;20428;-64
2022/10/29 07:39:23;;;;;;;3.17;1.50;;;13.30;99.90;;;;;;5100045;28;22962;-64
2022/10/29 07:41:53;;;;;;;2.25;1.80;;;13.40;99.90;;;;;;5109222;28;21186;-64
2022/10/29 07:44:24;;;;;;;1.80;1.70;;;13.50;99.90;;;;;;5128879;27;20425;-64
2022/10/29 07:46:51;;;;;;;3.75;1.60;;;13.60;99.90;;;;;;5112885;28;20467;-64
2022/10/29 07:49:21;;;;;;;1.33;1.23;;;13.60;99.90;;;;;;5099755;28;20430;-64
2022/10/29 07:51:49;;;;;;;1.53;1.43;;;13.70;99.90;;;;;;5117302;27;20488;-64
2022/10/29 07:54:16;;;;;;;1.60;1.50;;;13.80;99.90;;;;;;5112594;27;20428;-64
2022/10/29 07:56:43;;;;;;;1.90;1.30;;;13.80;99.90;;;;;;5108739;27;20426;-64
2022/10/29 07:59:14;;;;;;;3.83;1.60;;;13.90;99.90;;;;;;5109859;27;20424;-64
2022/10/29 08:01:41;;;;;;;1.70;1.60;;;14.00;99.90;;;;;;5113055;27;20426;-64
2022/10/29 08:04:08;;;;;;;1.38;1.10;;;14.10;99.90;;;;;;5124264;27;20433;-64
2022/10/29 08:06:37;;;;;;;2.35;1.23;;;14.20;99.90;;;;;;5085347;27;20500;-65
2022/10/29 08:09:04;;;;;;;1.85;1.40;;;14.20;99.90;;;;;;5125413;27;20468;-64
2022/10/29 08:11:32;;;;;;;1.20;1.20;;;14.30;50.70;;;;;;5089228;27;20427;-64
2022/10/29 08:13:59;;;;;;;1.42;1.40;;;14.40;1.00;;;;;;5113850;27;20456;-64
2022/10/29 08:16:28;;;;;;;2.03;1.13;;;14.40;1.00;;;;;;5099704;27;20425;-64
2022/10/29 08:18:55;;;;;;;1.20;1.20;;;14.50;1.00;;;;;;5099323;28;20968;-64
2022/10/29 08:21:23;;;;;;;1.80;1.67;;;14.40;1.00;;;;;;5098922;27;20433;-66
2022/10/29 08:23:50;;;;;;;2.53;1.48;;;14.50;1.00;;;;;;5103335;28;20481;-65
2022/10/29 08:26:18;;;;;;;1.23;1.20;;;14.40;99.90;;;;;;5111727;27;20441;-66
2022/10/29 08:28:44;;;;;;;5.75;0.90;;;14.40;99.90;;;;;;5099542;28;20430;-65
2022/10/29 08:31:15;;;;;;;1.73;1.63;;;14.50;99.90;;;;;;5104137;27;20802;-65
2022/10/29 08:33:41;;;;;;;1.85;1.38;;;14.70;99.90;;;;;;5106378;27;20431;-64
2022/10/29 08:36:08;;;;;;;2.25;1.60;;;14.90;99.90;;;;;;5110783;27;20431;-66
2022/10/29 08:38:37;;;;;;;1.85;1.67;;;15.20;99.90;;;;;;5108305;27;20473;-66
2022/10/29 08:41:34;;;;;;;3.42;1.42;;;15.50;99.90;;;;;;5107918;27;20425;-66
2022/10/29 08:44:17;;;;;;;1.88;1.58;;;15.80;1.00;;;;;;5093394;28;20602;-66
2022/10/29 08:46:53;;;;;;;3.23;1.80;;;16.10;1.00;;;;;;5104478;27;20444;-64
2022/10/29 08:49:33;;;;;;;2.22;1.67;;;16.20;1.00;;;;;;5101054;28;20485;-64
2022/10/29 08:52:05;;;;;;;3.25;1.88;;;16.00;1.00;;;;;;5104126;28;20428;-65
2022/10/29 08:54:37;;;;;;;4.22;1.75;;;16.10;1.00;;;;;;5107841;28;20425;-64
2022/10/29 08:57:12;;;;;;;3.10;1.75;;;16.00;1.00;;;;;;5101268;27;20502;-62
2022/10/29 08:59:51;;;;;;;1.30;1.30;;;16.10;1.00;;;;;;5103164;27;20528;-66
2022/10/29 09:02:19;;;;;;;1.60;1.50;;;16.10;1.00;;;;;;5097657;27;20521;-66
2022/10/29 09:04:46;;;;;;;2.05;1.50;;;16.10;99.90;;;;;;5099027;28;20431;-66
2022/10/29 09:07:18;;;;;;;1.98;1.73;;;16.00;99.90;;;;;;5105329;27;20463;-66
2022/10/29 09:09:54;;;;;;;1.77;1.35;;;16.00;99.90;;;;;;5093154;28;20432;-65
2022/10/29 09:12:58;;;;;;;1.35;1.30;;;16.10;99.90;;;;;;5101188;28;20942;-65
2022/10/29 09:15:39;;;;;;;1.50;1.40;;;16.20;99.90;;;;;;5108810;27;20428;-65
2022/10/29 09:18:36;;;;;;;3.45;2.05;;;16.30;99.90;;;;;;5090430;28;20465;-64
2022/10/29 09:21:05;;;;;;;2.78;1.80;;;16.30;21.20;;;;;;5101902;28;20432;-65
2022/10/29 09:23:44;;;;;;;2.60;1.42;;;16.20;1.00;;;;;;5098224;27;20420;-65
2022/10/29 09:26:19;;;;;;;2.03;1.75;;;16.20;26.40;;;;;;5102449;27;20438;-65
2022/10/29 09:29:25;;;;;;;1.58;1.42;;;16.30;1.00;;;;;;5102071;28;20427;-65
2022/10/29 09:32:01;;;;;;;3.05;1.85;;;16.30;1.00;;;;;;5095146;28;20812;-65
2022/10/29 09:34:50;;;;;;;3.50;1.63;;;16.40;1.10;;;;;;5110048;27;20833;-64
2022/10/29 09:37:26;;;;;;;1.50;1.40;;;16.60;1.00;;;;;;5100131;27;20429;-64
2022/10/29 09:39:55;;;;;;;1.87;1.70;;;16.60;1.00;;;;;;5104075;28;20416;-66
2022/10/29 09:42:32;;;;;;;3.30;1.92;;;16.70;1.00;;;;;;5096659;28;20436;-65
2022/10/29 09:45:03;;;;;;;1.65;1.55;;;16.80;1.00;;;;;;5101805;27;20428;-66
2022/10/29 09:47:39;;;;;;;1.70;1.50;;;16.90;1.00;;;;;;5102042;28;20920;-66
2022/10/29 09:50:20;;;;;;;1.98;1.77;;;17.10;1.00;;;;;;5098691;27;20436;-66
2022/10/29 09:52:48;;;;;;;3.00;1.58;;;17.10;1.00;;;;;;5104975;27;20420;-66
2022/10/29 09:55:24;;;;;;;1.42;1.33;;;17.10;1.00;;;;;;5103241;27;20420;-66
2022/10/29 09:57:52;;;;;;;2.23;1.80;;;17.30;1.00;;;;;;5109521;27;20424;-66
2022/10/29 10:00:23;;;;;;;2.05;1.40;;;17.40;1.00;;;;;;5104052;28;20953;-66
2022/10/29 10:03:04;;;;;;;2.40;1.83;;;17.60;1.00;;;;;;5108225;27;20436;-66
2022/10/29 10:05:35;;;;;;;2.33;1.65;;;17.70;1.00;;;;;;5109686;27;20438;-65
2022/10/29 10:08:07;;;;;;;2.90;1.45;;;18.00;1.00;;;;;;5099723;27;20432;-66
2022/10/29 10:10:37;;;;;;;3.00;1.38;;;18.50;1.00;;;;;;5096072;28;20973;-66
2022/10/29 10:13:05;;;;;;;2.10;1.73;;;19.00;1.00;;;;;;5109134;27;20485;-65
2022/10/29 10:15:34;;;;;;;1.70;1.33;;;19.50;1.00;;;;;;5100411;27;20423;-66
2022/10/29 10:18:25;;;;;;;1.60;1.50;;;20.10;99.90;;;;;;5096076;28;20427;-66
2022/10/29 10:21:11;;;;;;;1.60;1.50;;;20.20;99.90;;;;;;5101163;27;20435;-64
2022/10/29 10:23:42;;;;;;;3.40;2.00;;;20.70;99.90;;;;;;5102560;28;20432;-64
2022/10/29 10:26:27;;;;;;;1.50;1.40;;;20.90;99.90;;;;;;5101906;27;20491;-64
2022/10/29 10:29:04;;;;;;;1.90;1.60;;;21.30;99.90;;;;;;5100884;27;20909;-64
2022/10/29 10:31:31;;;;;;;1.92;1.55;;;21.30;99.90;;;;;;5095424;28;20432;-64
2022/10/29 10:33:58;;;;;;;1.60;1.50;;;21.20;99.90;;;;;;5103937;28;20504;-64
2022/10/29 10:36:27;;;;;;;3.08;1.63;;;21.50;99.90;;;;;;5101023;27;20479;-64
2022/10/29 10:39:03;;;;;;;2.17;1.67;;;21.60;99.90;;;;;;5103366;28;20902;-66
2022/10/29 10:41:34;;;;;;;3.97;1.83;;;21.20;99.90;;;;;;5103587;28;20531;-69
2022/10/29 10:44:03;;;;;;;1.48;1.38;;;21.00;99.90;;;;;;5105455;28;20956;-68
2022/10/29 10:46:51;;;;;;;1.90;1.40;;;21.00;99.90;;;;;;5106992;28;20435;-66
2022/10/29 10:49:29;;;;;;;2.53;1.60;;;20.80;99.90;;;;;;5099775;28;20424;-69
2022/10/29 10:51:58;;;;;;;3.03;1.40;;;20.60;99.90;;;;;;5097912;28;20429;-69
2022/10/29 10:54:32;;;;;;;2.20;1.38;;;20.50;99.90;;;;;;5103930;28;20829;-69
2022/10/29 10:57:03;;;;;;;1.77;1.67;;;20.30;99.90;;;;;;5106283;28;21290;-69
2022/10/29 10:59:55;;;;;;;2.03;1.88;;;20.30;99.90;;;;;;5110561;27;20471;-69
2022/10/29 11:02:49;;;;;;;2.70;1.50;;;20.20;99.90;;;;;;5095206;28;20424;-69
2022/10/29 11:05:18;;;;;;;2.47;1.75;;;20.20;99.90;;;;;;5113717;27;20430;-69
2022/10/29 11:07:56;;;;;;;1.98;1.88;;;20.00;99.90;;;;;;5100683;28;20436;-68
2022/10/29 11:10:42;;;;;;;2.60;1.60;;;19.90;99.90;;;;;;5102366;28;20428;-69
2022/10/29 11:13:16;;;;;;;2.50;1.70;;;20.00;99.90;;;;;;5104311;28;20429;-69
2022/10/29 11:15:51;;;;;;;1.43;1.33;;;20.20;99.90;;;;;;5108520;27;20430;-69
2022/10/29 11:18:29;;;;;;;2.22;2.03;;;20.20;99.90;;;;;;5104527;28;20429;-68
2022/10/29 11:21:00;;;;;;;1.83;1.70;;;20.20;99.90;;;;;;5111306;28;20424;-69
2022/10/29 11:23:41;;;;;;;1.30;1.27;;;20.10;99.90;;;;;;5110435;27;20423;-69
2022/10/29 11:26:26;;;;;;;1.88;1.60;;;20.30;99.90;;;;;;5102461;28;20480;-68
2022/10/29 11:28:59;;;;;;;3.65;1.55;;;20.50;99.90;;;;;;5106611;28;20427;-68
2022/10/29 11:31:38;;;;;;;2.85;1.25;;;20.50;99.90;;;;;;5105434;28;21064;-68
2022/10/29 11:34:17;;;;;;;1.60;1.50;;;20.70;99.90;;;;;;5094062;27;20429;-69
2022/10/29 11:37:25;;;;;;;1.42;1.33;;;20.80;99.90;;;;;;5100911;28;20436;-69
2022/10/29 11:40:05;;;;;;;2.08;1.65;;;20.90;99.90;;;;;;5059731;28;20416;-68
2022/10/29 11:42:31;;;;;;;2.13;1.38;;;20.70;99.90;;;;;;5097937;27;20428;-69
2022/10/29 11:44:58;;;;;;;3.17;1.83;;;20.40;99.90;;;;;;5102538;28;20481;-69
2022/10/29 11:47:28;;;;;;;1.98;1.48;;;20.30;99.90;;;;;;5103680;28;20500;-69
2022/10/29 11:50:17;;;;;;;1.70;1.60;;;20.30;99.90;;;;;;5108654;28;20435;-69
2022/10/29 11:52:56;;;;;;;2.83;1.50;;;20.30;99.90;;;;;;5107651;27;20430;-69
2022/10/29 11:55:32;;;;;;;1.83;1.58;;;20.20;99.90;;;;;;5088848;28;20434;-69
2022/10/29 11:58:03;;;;;;;1.60;1.48;;;20.10;99.90;;;;;;5096657;27;20860;-68
2022/10/29 12:01:01;;;;;;;1.13;1.13;;;20.00;99.90;;;;;;5105134;28;20420;-69
2022/10/29 12:03:50;;;;;;;2.40;1.45;;;19.80;99.90;;;;;;5105190;27;20439;-69
2022/10/29 12:06:21;;;;;;;1.33;1.10;;;19.60;99.90;;;;;;5093935;28;20479;-68
2022/10/29 12:08:50;;;;;;;3.13;1.48;;;19.50;99.90;;;;;;5104513;28;20430;-69
2022/10/29 12:11:51;;;;;;;4.90;1.30;;;19.40;99.90;;;;;;5104156;27;20424;-69
2022/10/29 12:14:50;;;;;;;1.50;1.40;;;19.30;99.90;;;;;;5100764;28;20880;-68
2022/10/29 12:17:41;;;;;;;2.05;1.50;;;19.20;99.90;;;;;;5096020;27;20484;-68
2022/10/29 12:20:19;;;;;;;2.08;1.30;;;19.00;99.90;;;;;;5098700;28;20432;-68
2022/10/29 12:23:02;;;;;;;1.60;1.50;;;18.90;99.90;;;;;;5100176;28;20438;-68
2022/10/29 12:25:56;;;;;;;1.67;1.50;;;18.90;99.90;;;;;;5107466;27;20424;-67
2022/10/29 12:28:34;;;;;;;2.47;1.88;;;18.80;99.90;;;;;;5095281;28;20424;-69
2022/10/29 12:31:27;;;;;;;3.33;1.83;;;18.70;99.90;;;;;;5098039;27;20420;-68
2022/10/29 12:34:10;;;;;;;3.08;1.52;;;18.70;99.90;;;;;;5084693;28;20479;-69
2022/10/29 12:37:02;;;;;;;1.65;1.55;;;18.60;99.90;;;;;;5099652;28;20432;-69
2022/10/29 12:39:33;;;;;;;2.45;1.83;;;18.80;99.90;;;;;;5091572;28;20501;-69
2022/10/29 12:42:13;;;;;;;2.33;1.67;;;18.80;99.90;;;;;;5092124;27;20479;-69
2022/10/29 12:44:56;;;;;;;1.40;1.40;;;18.80;99.90;;;;;;5097338;28;20473;-69
2022/10/29 12:47:31;;;;;;;1.58;1.48;;;18.90;99.90;;;;;;5100224;27;20440;-69
2022/10/29 12:50:04;;;;;;;1.55;1.45;;;18.90;99.90;;;;;;5094234;28;20941;-69
2022/10/29 12:52:43;;;;;;;1.38;1.30;;;19.00;99.90;;;;;;5103583;28;20436;-69
2022/10/29 12:55:13;;;;;;;1.95;1.70;;;19.10;99.90;;;;;;5087999;28;20477;-69
2022/10/29 12:57:42;;;;;;;3.20;1.60;;;19.20;99.90;;;;;;5093540;28;20428;-69
2022/10/29 13:00:31;;;;;;;2.97;1.67;;;19.30;99.90;;;;;;5101377;28;20424;-68
2022/10/29 13:03:00;;;;;;;3.20;1.60;;;19.60;99.90;;;;;;5086749;28;20917;-68
2022/10/29 13:05:36;;;;;;;3.73;1.57;;;19.70;99.90;;;;;;5097733;28;20852;-68
2022/10/29 13:08:03;;;;;;;1.80;1.48;;;19.90;99.90;;;;;;5098315;27;20439;-69
2022/10/29 13:10:32;;;;;;;2.53;1.50;;;20.20;99.90;;;;;;5100816;28;20782;-68
2022/10/29 13:13:14;;;;;;;1.95;1.73;;;20.40;99.90;;;;;;5090115;27;20488;-69
2022/10/29 13:15:58;;;;;;;2.60;1.35;;;20.40;99.90;;;;;;5093331;27;20503;-70
2022/10/29 13:18:37;;;;;;;3.42;1.65;;;20.40;99.90;;;;;;5091398;28;20506;-69